Time;durP1;ratioP1;P1;durP2;ratioP2;P2;SDS_P1;SDS_P2;PMS_P1;PMS_P2;Temp;Humidity;BMP_temperature;BMP_pressure;BME280_temperature;BME280_humidity;BME280_pressure;Samples;Min_cycle;Max_cycle;Signal;HPM_P1;HPM_P2
2023/03/21 00:01:29;;;;;;;;;;;21.70;49.70;;;;;;6144651;29;20282;-49
2023/03/21 00:04:31;;;;;;;;;;;22.10;49.90;;;;;;6143328;29;19947;-49
2023/03/21 00:07:52;;;;;;;;;;;22.20;47.30;;;;;;6142041;29;20352;-51
2023/03/21 00:10:55;;;;;;;;;;;22.00;49.90;;;;;;6139586;29;19922;-51
2023/03/21 00:14:01;;;;;;;;;;;21.80;49.00;;;;;;6136979;29;19922;-51
2023/03/21 00:17:03;;;;;;;;;;;22.10;50.00;;;;;;6137666;29;19993;-51
2023/03/21 00:20:05;;;;;;;;;;;21.70;50.40;;;;;;6138383;29;19994;-49
2023/03/21 00:23:08;;;;;;;;;;;22.20;51.00;;;;;;6135040;29;19994;-51
2023/03/21 00:26:10;;;;;;;;;;;21.70;49.90;;;;;;6140043;29;19930;-46
2023/03/21 00:29:11;;;;;;;;;;;21.70;50.00;;;;;;6139461;29;19934;-51
2023/03/21 00:32:12;;;;;;;;;;;21.60;49.90;;;;;;6143173;29;19922;-48
2023/03/21 00:35:14;;;;;;;;;;;22.00;50.00;;;;;;6141095;29;19922;-51
2023/03/21 00:38:36;;;;;;;;;;;22.10;50.20;;;;;;6140680;29;19970;-51
2023/03/21 00:41:37;;;;;;;;;;;21.80;49.90;;;;;;6139921;29;20311;-50
2023/03/21 00:44:46;;;;;;;;;;;22.20;50.20;;;;;;6139324;29;19969;-50
2023/03/21 00:47:47;;;;;;;;;;;21.60;49.90;;;;;;6141075;29;19922;-50
2023/03/21 00:50:51;;;;;;;;;;;21.50;49.90;;;;;;6141698;29;19929;-52
2023/03/21 00:53:53;;;;;;;;;;;21.80;50.00;;;;;;6143210;29;19923;-50
2023/03/21 00:56:55;;;;;;;;;;;22.00;50.00;;;;;;6150272;29;19930;-48
2023/03/21 00:59:57;;;;;;;;;;;22.00;50.30;;;;;;6149568;29;19927;-49
2023/03/21 01:03:04;;;;;;;;;;;21.50;50.10;;;;;;6149734;29;19923;-51
2023/03/21 01:06:26;;;;;;;;;;;21.60;50.00;;;;;;6150161;29;19923;-51
2023/03/21 01:09:28;;;;;;;;;;;22.20;50.30;;;;;;6151609;29;19929;-51
2023/03/21 01:12:29;;;;;;;;;;;21.70;50.20;;;;;;6150752;29;20400;-51
2023/03/21 01:15:30;;;;;;;;;;;22.20;50.30;;;;;;6151918;29;20331;-50
2023/03/21 01:18:32;;;;;;;;;;;21.80;50.20;;;;;;6151558;29;19933;-51
2023/03/21 01:21:35;;;;;;;;;;;21.60;50.00;;;;;;6150925;29;19934;-50
2023/03/21 01:24:36;;;;;;;;;;;22.00;50.20;;;;;;6150501;29;19933;-51
2023/03/21 01:27:47;;;;;;;;;;;21.90;50.30;;;;;;6153422;28;19929;-52
2023/03/21 01:30:49;;;;;;;;;;;21.60;50.10;;;;;;6154212;29;20290;-51
2023/03/21 01:33:51;;;;;;;;;;;21.50;50.00;;;;;;6153559;29;19922;-49
2023/03/21 01:36:52;;;;;;;;;;;21.70;50.00;;;;;;6151513;29;19981;-48
2023/03/21 01:39:56;;;;;;;;;;;21.90;50.40;;;;;;6147256;29;19934;-50
2023/03/21 01:42:57;;;;;;;;;;;21.50;50.20;;;;;;6144764;29;19923;-46
2023/03/21 01:46:07;;;;;;;;;;;21.50;50.40;;;;;;6147676;28;20021;-51
2023/03/21 01:49:33;;;;;;;;;;;21.90;50.30;;;;;;6146429;29;20276;-51
2023/03/21 01:52:46;;;;;;;;;;;21.50;50.30;;;;;;6145273;29;20025;-50
2023/03/21 01:55:52;;;;;;;;;;;21.50;51.00;;;;;;6144740;29;19922;-49
2023/03/21 01:59:20;;;;;;;;;;;21.40;50.20;;;;;;6148764;28;19927;-50
2023/03/21 02:02:53;;;;;;;;;;;21.70;50.30;;;;;;6150292;29;19969;-47
2023/03/21 02:06:12;;;;;;;;;;;21.90;50.50;;;;;;6138923;29;19922;-49
2023/03/21 02:09:19;;;;;;;;;;;21.50;50.30;;;;;;6137100;29;19950;-50
2023/03/21 02:12:21;;;;;;;;;;;21.80;50.40;;;;;;6140700;29;19926;-49
2023/03/21 02:15:26;;;;;;;;;;;21.50;50.40;;;;;;6139498;29;20010;-51
2023/03/21 02:18:39;;;;;;;;;;;21.40;50.30;;;;;;6138172;29;19945;-51
2023/03/21 02:21:57;;;;;;;;;;;21.50;50.40;;;;;;6142113;29;19923;-51
2023/03/21 02:25:12;;;;;;;;;;;21.40;50.10;;;;;;6141914;28;19930;-50
2023/03/21 02:28:26;;;;;;;;;;;21.70;50.60;;;;;;6138470;28;20463;-51
2023/03/21 02:31:35;;;;;;;;;;;21.50;50.60;;;;;;6134927;29;19922;-51
2023/03/21 02:34:46;;;;;;;;;;;21.50;50.60;;;;;;6134695;29;20302;-51
2023/03/21 02:37:52;;;;;;;;;;;21.60;50.60;;;;;;6136070;29;19947;-51
2023/03/21 02:41:05;;;;;;;;;;;21.40;50.60;;;;;;6134982;29;19958;-48
2023/03/21 02:44:24;;;;;;;;;;;21.60;50.60;;;;;;6133935;29;19931;-51
2023/03/21 02:47:28;;;;;;;;;;;21.50;50.60;;;;;;6132920;29;19926;-50
2023/03/21 02:50:32;;;;;;;;;;;22.00;50.90;;;;;;6135024;29;19973;-47
2023/03/21 02:53:38;;;;;;;;;;;21.40;50.60;;;;;;6137942;29;19922;-49
2023/03/21 02:56:41;;;;;;;;;;;21.30;50.50;;;;;;6143640;29;19947;-51
2023/03/21 02:59:45;;;;;;;;;;;21.80;50.80;;;;;;6140544;29;19923;-50
2023/03/21 03:03:03;;;;;;;;;;;21.40;50.50;;;;;;6144814;29;19935;-48
2023/03/21 03:06:16;;;;;;;;;;;21.90;49.60;;;;;;6144735;29;19923;-48
2023/03/21 03:09:29;;;;;;;;;;;21.60;50.70;;;;;;6146226;29;19923;-49
2023/03/21 03:12:38;;;;;;;;;;;21.40;50.60;;;;;;6139378;29;19922;-51
2023/03/21 03:15:44;;;;;;;;;;;21.80;50.80;;;;;;6138375;29;19970;-50
2023/03/21 03:18:49;;;;;;;;;;;21.60;50.80;;;;;;6137732;29;19926;-49
2023/03/21 03:21:55;;;;;;;;;;;21.30;50.60;;;;;;6138899;29;19923;-50
2023/03/21 03:24:59;;;;;;;;;;;21.40;50.80;;;;;;6141821;29;19923;-48
2023/03/21 03:28:16;;;;;;;;;;;21.30;50.90;;;;;;6142028;29;19923;-46
2023/03/21 03:31:24;;;;;;;;;;;21.30;50.90;;;;;;6142846;29;19923;-51
2023/03/21 03:34:38;;;;;;;;;;;21.70;51.10;;;;;;6139651;29;19923;-49
2023/03/21 03:37:41;;;;;;;;;;;21.70;51.10;;;;;;6138475;29;19922;-49
2023/03/21 03:40:45;;;;;;;;;;;21.40;50.90;;;;;;6139053;29;19930;-49
2023/03/21 03:44:01;;;;;;;;;;;21.50;50.90;;;;;;6140872;29;19926;-51
2023/03/21 03:47:07;;;;;;;;;;;21.80;51.10;;;;;;6141116;29;19978;-49
2023/03/21 03:50:12;;;;;;;;;;;21.30;50.90;;;;;;6144455;29;19930;-50
2023/03/21 03:53:18;;;;;;;;;;;21.40;51.00;;;;;;6144447;29;19930;-48
2023/03/21 03:56:24;;;;;;;;;;;21.50;51.10;;;;;;6145121;29;19923;-50
2023/03/21 03:59:26;;;;;;;;;;;21.40;51.20;;;;;;6146980;29;19930;-50
2023/03/21 04:02:46;;;;;;;;;;;21.70;51.30;;;;;;6144215;29;19927;-49
2023/03/21 04:05:52;;;;;;;;;;;21.30;51.30;;;;;;6148289;29;19929;-51
2023/03/21 04:08:55;;;;;;;;;;;21.40;51.40;;;;;;6146273;29;19923;-47
2023/03/21 04:11:57;;;;;;;;;;;21.20;51.30;;;;;;6146649;29;19927;-50
2023/03/21 04:15:00;;;;;;;;;;;21.80;51.50;;;;;;6148544;29;19970;-51
2023/03/21 04:18:16;;;;;;;;;;;21.90;51.60;;;;;;6147061;29;19923;-49
2023/03/21 04:21:18;;;;;;;;;;;21.30;51.30;;;;;;6148033;29;19923;-51
2023/03/21 04:24:20;;;;;;;;;;;21.30;51.40;;;;;;6148430;29;19922;-50
2023/03/21 04:27:23;;;;;;;;;;;21.90;51.80;;;;;;6148020;29;20383;-51
2023/03/21 04:30:40;;;;;;;;;;;21.20;51.30;;;;;;6146630;28;19977;-51
2023/03/21 04:33:48;;;;;;;;;;;21.60;51.80;;;;;;6149649;29;19923;-49
2023/03/21 04:36:52;;;;;;;;;;;21.40;51.60;;;;;;6148917;29;19945;-51
2023/03/21 04:39:57;;;;;;;;;;;21.60;51.80;;;;;;6149256;29;20013;-51
2023/03/21 04:43:00;;;;;;;;;;;21.30;51.60;;;;;;6149106;29;19922;-52
2023/03/21 04:46:02;;;;;;;;;;;21.70;51.90;;;;;;6148438;29;19930;-51
2023/03/21 04:49:05;;;;;;;;;;;21.70;51.90;;;;;;6148268;28;19923;-51
2023/03/21 04:52:07;;;;;;;;;;;21.60;51.80;;;;;;6144786;29;19927;-49
2023/03/21 04:55:09;;;;;;;;;;;21.40;51.70;;;;;;6148769;29;19993;-49
2023/03/21 04:58:11;;;;;;;;;;;21.70;51.80;;;;;;6148402;29;19923;-52
2023/03/21 05:01:13;;;;;;;;;;;21.20;51.60;;;;;;6148820;29;19938;-51
2023/03/21 05:04:16;;;;;;;;;;;21.60;51.90;;;;;;6163479;29;19933;-49
2023/03/21 05:07:18;;;;;;;;;;;21.60;51.80;;;;;;6147620;29;19923;-50
2023/03/21 05:10:19;;;;;;;;;;;21.60;52.00;;;;;;6147937;29;19965;-53
2023/03/21 05:13:21;;;;;;;;;;;21.30;51.90;;;;;;6145957;29;19923;-50
2023/03/21 05:16:25;;;;;;;;;;;21.40;51.90;;;;;;6145810;29;19946;-52
2023/03/21 05:19:33;;;;;;;;;;;22.00;52.20;;;;;;6146365;28;20394;-52
2023/03/21 05:22:39;;;;;;;;;;;21.60;51.90;;;;;;6144853;29;19946;-49
2023/03/21 05:25:43;;;;;;;;;;;21.40;51.90;;;;;;6145248;28;19922;-51
2023/03/21 05:28:59;;;;;;;;;;;21.30;51.90;;;;;;6145277;29;19929;-50
2023/03/21 05:32:01;;;;;;;;;;;21.20;51.80;;;;;;6145963;29;19929;-52
2023/03/21 05:35:02;;;;;;;;;;;21.20;52.00;;;;;;6146507;29;19929;-50
2023/03/21 05:38:04;;;;;;;;;;;21.20;51.90;;;;;;6146018;29;19923;-52
2023/03/21 05:41:18;;;;;;;;;;;21.30;52.10;;;;;;6146710;29;19934;-50
2023/03/21 05:44:21;;;;;;;;;;;21.10;52.10;;;;;;6150075;29;19922;-52
2023/03/21 05:47:23;;;;;;;;;;;21.30;52.10;;;;;;6150538;29;19922;-52
2023/03/21 05:50:26;;;;;;;;;;;21.80;52.00;;;;;;6150322;29;19939;-53
2023/03/21 05:53:43;;;;;;;;;;;21.40;52.30;;;;;;6150265;29;19950;-50
2023/03/21 05:56:45;;;;;;;;;;;21.30;52.20;;;;;;6150617;29;19922;-48
2023/03/21 05:59:54;;;;;;;;;;;21.50;52.40;;;;;;6150324;29;19923;-50
2023/03/21 06:02:55;;;;;;;;;;;21.70;52.40;;;;;;6151035;29;19923;-52
2023/03/21 06:06:11;;;;;;;;;;;21.40;51.80;;;;;;6147529;29;19923;-50
2023/03/21 06:09:20;;;;;;;;;;;22.00;52.60;;;;;;6149905;29;19994;-50
2023/03/21 06:12:29;;;;;;;;;;;21.30;52.30;;;;;;6149582;29;20292;-49
2023/03/21 06:20:12;;;;;;;;;;;21.40;49.50;;;;;;6150350;29;19912;-49
2023/03/21 06:23:19;;;;;;;;;;;21.40;52.30;;;;;;6148662;29;19945;-52
2023/03/21 06:26:22;;;;;;;;;;;21.90;52.70;;;;;;6150737;29;19922;-50
2023/03/21 06:29:27;;;;;;;;;;;21.50;52.40;;;;;;6153555;29;19906;-51
2023/03/21 06:32:29;;;;;;;;;;;21.20;52.30;;;;;;6151879;29;19923;-50
2023/03/21 06:35:39;;;;;;;;;;;21.50;52.40;;;;;;6151124;29;20013;-49
2023/03/21 06:38:40;;;;;;;;;;;22.00;52.70;;;;;;6148270;29;19922;-50
2023/03/21 06:41:42;;;;;;;;;;;21.20;52.40;;;;;;6148108;29;19929;-51
2023/03/21 06:44:43;;;;;;;;;;;21.30;52.40;;;;;;6151217;29;19923;-51
2023/03/21 06:47:48;;;;;;;;;;;21.40;52.10;;;;;;6151762;29;19969;-48
2023/03/21 06:51:03;;;;;;;;;;;22.00;52.80;;;;;;6166566;28;19923;-49
2023/03/21 06:54:06;;;;;;;;;;;21.60;52.60;;;;;;6152594;29;19919;-49
2023/03/21 06:57:13;;;;;;;;;;;22.00;52.70;;;;;;6155526;29;19983;-52
2023/03/21 07:00:17;;;;;;;;;;;22.10;52.80;;;;;;6152805;29;19929;-52
2023/03/21 07:03:22;;;;;;;;;;;21.70;51.90;;;;;;6154468;29;19923;-51
2023/03/21 07:06:26;;;;;;;;;;;21.30;52.00;;;;;;6156250;29;19925;-49
2023/03/21 07:09:28;;;;;;;;;;;21.70;52.70;;;;;;6154720;29;19930;-52
2023/03/21 07:12:39;;;;;;;;;;;21.80;52.40;;;;;;6135093;29;19962;-53
2023/03/21 07:15:53;;;;;;;;;;;22.00;52.60;;;;;;6149510;29;19926;-51
2023/03/21 07:18:54;;;;;;;;;;;21.60;52.30;;;;;;6149122;29;19923;-52
2023/03/21 07:21:56;;;;;;;;;;;21.90;52.70;;;;;;6147703;29;20033;-52
2023/03/21 07:24:58;;;;;;;;;;;21.40;52.50;;;;;;6147513;29;19923;-53
2023/03/21 07:28:12;;;;;;;;;;;22.10;52.70;;;;;;6146083;29;20397;-52
2023/03/21 07:31:14;;;;;;;;;;;21.50;52.30;;;;;;6146658;29;19945;-51
2023/03/21 07:34:17;;;;;;;;;;;21.60;52.20;;;;;;6144649;29;19929;-51
2023/03/21 07:37:20;;;;;;;;;;;21.90;52.40;;;;;;6144819;29;20332;-49
2023/03/21 07:40:21;;;;;;;;;;;21.60;52.20;;;;;;6147594;29;19930;-53
2023/03/21 07:43:23;;;;;;;;;;;21.80;52.20;;;;;;6147778;29;19923;-51
2023/03/21 07:46:26;;;;;;;;;;;22.20;52.80;;;;;;6144612;29;19958;-49
2023/03/21 07:49:29;;;;;;;;;;;21.60;52.30;;;;;;6145048;29;19929;-52
2023/03/21 07:52:32;;;;;;;;;;;21.90;52.40;;;;;;6148466;29;19922;-50
2023/03/21 07:55:33;;;;;;;;;;;21.30;52.30;;;;;;6148798;29;19923;-52
2023/03/21 07:58:35;;;;;;;;;;;22.20;52.80;;;;;;6148703;29;19922;-52
2023/03/21 08:01:36;;;;;;;;;;;21.60;52.20;;;;;;6149354;29;19934;-50
2023/03/21 08:04:38;;;;;;;;;;;22.10;52.60;;;;;;6147428;29;19922;-51
2023/03/21 08:07:40;;;;;;;;;;;21.70;52.10;;;;;;6146760;29;19929;-51
2023/03/21 08:10:42;;;;;;;;;;;22.10;52.60;;;;;;6134577;29;19922;-47
2023/03/21 08:13:43;;;;;;;;;;;21.90;52.20;;;;;;6132933;29;19923;-49
2023/03/21 08:16:45;;;;;;;;;;;21.90;52.50;;;;;;6132642;29;19978;-47
2023/03/21 08:19:46;;;;;;;;;;;21.70;52.20;;;;;;6130732;29;19926;-46
2023/03/21 08:22:48;;;;;;;;;;;22.10;52.50;;;;;;6129218;28;19923;-47
2023/03/21 08:25:50;;;;;;;;;;;22.10;52.40;;;;;;6128924;29;19923;-48
2023/03/21 08:28:52;;;;;;;;;;;22.30;52.40;;;;;;6131535;28;19993;-46
2023/03/21 08:31:53;;;;;;;;;;;21.70;51.90;;;;;;6130266;29;19967;-46
2023/03/21 08:34:57;;;;;;;;;;;22.20;51.90;;;;;;6129263;29;20298;-48
2023/03/21 08:38:01;;;;;;;;;;;21.90;51.70;;;;;;6126706;29;20409;-47
2023/03/21 08:41:02;;;;;;;;;;;22.40;52.20;;;;;;6130036;29;20327;-46
2023/03/21 08:44:05;;;;;;;;;;;22.10;52.10;;;;;;6130772;29;20353;-47
2023/03/21 08:47:07;;;;;;;;;;;22.40;52.10;;;;;;6130442;29;19943;-46
2023/03/21 08:50:10;;;;;;;;;;;21.90;51.90;;;;;;6130334;29;19923;-46
2023/03/21 08:53:12;;;;;;;;;;;22.60;52.20;;;;;;6128815;28;19923;-46
2023/03/21 08:56:13;;;;;;;;;;;22.20;51.90;;;;;;6129331;29;19929;-49
2023/03/21 08:59:15;;;;;;;;;;;22.40;52.10;;;;;;6129040;28;19930;-45
2023/03/21 09:02:17;;;;;;;;;;;22.00;51.60;;;;;;6129691;29;19961;-48
2023/03/21 09:05:19;;;;;;;;;;;22.60;52.10;;;;;;6139102;29;19922;-43
2023/03/21 09:08:22;;;;;;;;;;;22.00;51.80;;;;;;6143298;29;19982;-43
2023/03/21 09:11:23;;;;;;;;;;;22.50;52.20;;;;;;6132470;29;19977;-42
2023/03/21 09:14:24;;;;;;;;;;;21.90;51.70;;;;;;6129496;29;19929;-43
2023/03/21 09:17:31;;;;;;;;;;;22.70;52.20;;;;;;6131528;28;19969;-48
2023/03/21 09:20:32;;;;;;;;;;;22.20;51.70;;;;;;6130307;29;19922;-50
2023/03/21 09:23:36;;;;;;;;;;;22.10;51.90;;;;;;6130884;28;19961;-48
2023/03/21 09:26:37;;;;;;;;;;;22.00;51.80;;;;;;6133189;29;19922;-45
2023/03/21 09:29:39;;;;;;;;;;;22.40;51.90;;;;;;6132480;28;19923;-48
2023/03/21 09:32:41;;;;;;;;;;;21.90;51.50;;;;;;6145996;28;19938;-47
2023/03/21 09:35:42;;;;;;;;;;;22.70;52.00;;;;;;6131749;29;19923;-48
2023/03/21 09:38:45;;;;;;;;;;;22.20;51.70;;;;;;6132908;29;20418;-48
2023/03/21 09:41:54;;;;;;;;;;;22.80;52.20;;;;;;6132673;28;19931;-45
2023/03/21 09:45:03;;;;;;;;;;;22.20;51.60;;;;;;6148268;29;19930;-45
2023/03/21 09:48:09;;;;;;;;;;;22.60;51.30;;;;;;6136616;28;19922;-48
2023/03/21 09:51:14;;;;;;;;;;;22.10;51.60;;;;;;6139098;29;19929;-46
2023/03/21 09:54:20;;;;;;;;;;;22.70;51.80;;;;;;6136947;29;20332;-48
2023/03/21 09:57:26;;;;;;;;;;;22.50;51.80;;;;;;6136382;29;19922;-46
2023/03/21 10:00:31;;;;;;;;;;;23.00;52.10;;;;;;6138456;29;19922;-43
2023/03/21 10:03:35;;;;;;;;;;;22.20;51.60;;;;;;6136700;29;20009;-47
2023/03/21 10:06:40;;;;;;;;;;;23.00;52.10;;;;;;6138144;29;19982;-44
2023/03/21 10:09:43;;;;;;;;;;;22.30;51.70;;;;;;6139519;29;19923;-47
2023/03/21 10:12:46;;;;;;;;;;;23.00;52.10;;;;;;6143553;29;19966;-43
2023/03/21 10:15:50;;;;;;;;;;;23.10;52.10;;;;;;6143156;29;19922;-49
2023/03/21 10:18:53;;;;;;;;;;;22.50;51.50;;;;;;6141056;29;20303;-45
2023/03/21 10:21:54;;;;;;;;;;;22.70;51.90;;;;;;6139691;29;19922;-48
2023/03/21 10:25:06;;;;;;;;;;;22.70;51.80;;;;;;6145040;29;20021;-48
2023/03/21 10:28:11;;;;;;;;;;;23.10;52.20;;;;;;6140926;29;19956;-48
2023/03/21 10:31:16;;;;;;;;;;;22.70;51.90;;;;;;6137055;29;19970;-47
2023/03/21 10:34:19;;;;;;;;;;;22.70;49.20;;;;;;6137211;29;19923;-46
2023/03/21 10:37:21;;;;;;;;;;;22.60;51.80;;;;;;6142316;29;19923;-44
2023/03/21 10:40:23;;;;;;;;;;;22.90;51.90;;;;;;6156009;29;19923;-49
2023/03/21 10:43:36;;;;;;;;;;;22.80;51.80;;;;;;6133464;29;20295;-46
2023/03/21 10:46:37;;;;;;;;;;;23.10;51.80;;;;;;6133652;29;20040;-48
2023/03/21 10:49:42;;;;;;;;;;;22.70;51.50;;;;;;6133017;29;20344;-47
2023/03/21 10:53:09;;;;;;;;;;;22.80;51.60;;;;;;6136416;29;19929;-45
2023/03/21 10:56:12;;;;;;;;;;;22.90;51.60;;;;;;6135502;29;19930;-49
2023/03/21 10:59:19;;;;;;;;;;;22.90;51.70;;;;;;6132281;29;20043;-48
2023/03/21 11:02:29;;;;;;;;;;;22.60;51.50;;;;;;6132393;29;20405;-46
2023/03/21 11:05:34;;;;;;;;;;;23.20;51.80;;;;;;6130337;29;19929;-47
2023/03/21 11:08:38;;;;;;;;;;;22.50;51.40;;;;;;6129253;29;19929;-49
2023/03/21 11:11:47;;;;;;;;;;;22.90;51.50;;;;;;6129338;29;19929;-46
2023/03/21 11:14:49;;;;;;;;;;;22.90;51.60;;;;;;6138458;29;19923;-49
2023/03/21 11:17:51;;;;;;;;;;;23.20;52.40;;;;;;6150760;28;19923;-48
2023/03/21 11:20:54;;;;;;;;;;;22.70;51.30;;;;;;6149985;29;19947;-48
2023/03/21 11:23:55;;;;;;;;;;;22.90;51.50;;;;;;6149227;29;19922;-48
2023/03/21 11:27:00;;;;;;;;;;;22.40;51.10;;;;;;6148614;29;19923;-49
2023/03/21 11:30:03;;;;;;;;;;;22.90;51.50;;;;;;6149406;28;19923;-51
2023/03/21 11:33:05;;;;;;;;;;;23.00;51.50;;;;;;6149285;29;19931;-49
2023/03/21 11:36:23;;;;;;;;;;;22.90;51.60;;;;;;6148512;28;19990;-50
2023/03/21 11:39:29;;;;;;;;;;;22.90;51.50;;;;;;6150558;29;19985;-51
2023/03/21 11:42:32;;;;;;;;;;;23.30;51.50;;;;;;6148989;28;19923;-48
2023/03/21 11:45:34;;;;;;;;;;;22.90;51.40;;;;;;6144947;29;19922;-48
2023/03/21 11:48:40;;;;;;;;;;;23.20;51.50;;;;;;6148341;29;19923;-47
2023/03/21 11:51:45;;;;;;;;;;;22.50;51.00;;;;;;6148647;29;20335;-51
2023/03/21 11:54:54;;;;;;;;;;;22.80;51.10;;;;;;6146410;29;19926;-50
2023/03/21 11:58:02;;;;;;;;;;;22.90;51.10;;;;;;6148383;29;19923;-50
2023/03/21 12:01:18;;;;;;;;;;;23.20;51.20;;;;;;6146011;29;20407;-51
2023/03/21 12:04:27;;;;;;;;;;;22.60;50.90;;;;;;6147438;29;19929;-50
2023/03/21 12:07:34;;;;;;;;;;;23.40;51.30;;;;;;6146279;29;19929;-48
2023/03/21 12:10:40;;;;;;;;;;;22.70;50.90;;;;;;6146546;29;19923;-50
2023/03/21 12:13:53;;;;;;;;;;;23.50;51.30;;;;;;6149292;29;19923;-48
2023/03/21 12:17:02;;;;;;;;;;;23.10;51.10;;;;;;6149301;29;19929;-50
2023/03/21 12:20:13;;;;;;;;;;;23.10;51.00;;;;;;6145868;29;19923;-45
2023/03/21 12:23:22;;;;;;;;;;;22.60;50.70;;;;;;6142061;29;19923;-49
2023/03/21 12:26:26;;;;;;;;;;;23.50;51.20;;;;;;6150320;29;19933;-52
2023/03/21 12:29:35;;;;;;;;;;;22.90;50.80;;;;;;6149032;29;19929;-51
2023/03/21 12:32:42;;;;;;;;;;;23.50;51.10;;;;;;6130953;29;20327;-50
2023/03/21 12:35:49;;;;;;;;;;;22.70;50.80;;;;;;6096971;29;19947;-52
2023/03/21 12:38:56;;;;;;;;;;;23.40;51.10;;;;;;6129168;29;20016;-49
2023/03/21 12:42:06;;;;;;;;;;;23.20;51.10;;;;;;6137473;29;19922;-48
2023/03/21 12:45:13;;;;;;;;;;;23.50;51.00;;;;;;6128573;29;19930;-46
2023/03/21 12:48:21;;;;;;;;;;;22.90;50.70;;;;;;6127486;29;19923;-52
2023/03/21 12:51:25;;;;;;;;;;;23.30;50.90;;;;;;6130319;29;20018;-49
2023/03/21 12:54:29;;;;;;;;;;;23.10;50.70;;;;;;6132600;29;19927;-49
2023/03/21 12:57:33;;;;;;;;;;;23.30;50.60;;;;;;6131150;29;20026;-50
2023/03/21 13:00:37;;;;;;;;;;;23.20;50.60;;;;;;6101229;29;19923;-49
2023/03/21 13:03:40;;;;;;;;;;;23.50;50.80;;;;;;6134796;29;19981;-50
2023/03/21 13:06:42;;;;;;;;;;;22.90;51.10;;;;;;6135948;29;19930;-49
2023/03/21 13:09:43;;;;;;;;;;;23.50;50.80;;;;;;6132194;29;19961;-48
2023/03/21 13:12:55;;;;;;;;;;;23.10;50.30;;;;;;6130748;29;19923;-49
2023/03/21 13:16:01;;;;;;;;;;;23.20;50.00;;;;;;6131953;29;20355;-46
2023/03/21 13:19:12;;;;;;;;;;;23.10;50.40;;;;;;6137554;29;20014;-49
2023/03/21 13:22:20;;;;;;;;;;;23.40;50.60;;;;;;6133156;29;19922;-51
2023/03/21 13:25:22;;;;;;;;;;;22.70;50.10;;;;;;6132243;29;20379;-49
2023/03/21 13:28:28;;;;;;;;;;;23.70;50.60;;;;;;6131667;29;19982;-44
2023/03/21 13:31:31;;;;;;;;;;;23.40;50.30;;;;;;6131576;29;19923;-46
2023/03/21 13:34:53;;;;;;;;;;;23.70;50.70;;;;;;6136452;29;19926;-48
2023/03/21 13:37:57;;;;;;;;;;;23.00;50.10;;;;;;6130655;29;20387;-50
2023/03/21 13:41:00;;;;;;;;;;;23.70;50.30;;;;;;6129789;29;19998;-49
2023/03/21 13:44:07;;;;;;;;;;;23.30;50.10;;;;;;6127008;29;19922;-50
2023/03/21 13:47:23;;;;;;;;;;;23.70;50.20;;;;;;6126235;29;19923;-46
2023/03/21 13:50:27;;;;;;;;;;;23.60;50.30;;;;;;6131843;29;19923;-50
2023/03/21 13:53:30;;;;;;;;;;;23.50;49.60;;;;;;6134463;29;19923;-52
2023/03/21 13:56:47;;;;;;;;;;;23.10;49.80;;;;;;6146211;29;19934;-48
2023/03/21 14:00:09;;;;;;;;;;;23.40;49.80;;;;;;6151330;29;19989;-47
2023/03/21 14:03:16;;;;;;;;;;;23.50;50.10;;;;;;6131564;29;20307;-48
2023/03/21 14:06:17;;;;;;;;;;;24.00;50.20;;;;;;6131647;29;20323;-50
2023/03/21 14:09:22;;;;;;;;;;;23.30;49.80;;;;;;6129909;29;19923;-50
2023/03/21 14:12:25;;;;;;;;;;;23.50;49.60;;;;;;6129804;29;19922;-48
2023/03/21 14:15:30;;;;;;;;;;;23.50;49.70;;;;;;6129994;29;19990;-52
2023/03/21 14:18:42;;;;;;;;;;;23.70;49.80;;;;;;6130824;29;19923;-51
2023/03/21 14:21:55;;;;;;;;;;;23.40;50.50;;;;;;6129160;29;19922;-50
2023/03/21 14:24:57;;;;;;;;;;;23.50;49.90;;;;;;6129443;29;19927;-47
2023/03/21 14:28:00;;;;;;;;;;;23.30;49.50;;;;;;6128407;29;19950;-50
2023/03/21 14:31:02;;;;;;;;;;;23.70;49.70;;;;;;6128385;29;20339;-49
2023/03/21 14:34:09;;;;;;;;;;;23.60;49.60;;;;;;6129747;29;19945;-45
2023/03/21 14:37:10;;;;;;;;;;;23.50;46.70;;;;;;6129470;29;20318;-49
2023/03/21 14:40:22;;;;;;;;;;;23.60;49.40;;;;;;6131291;29;19986;-52
2023/03/21 14:43:23;;;;;;;;;;;23.70;49.50;;;;;;6137354;29;19930;-47
2023/03/21 14:46:25;;;;;;;;;;;23.40;49.30;;;;;;6129398;29;19923;-48
2023/03/21 14:49:28;;;;;;;;;;;23.90;49.40;;;;;;6130018;29;19958;-48
2023/03/21 14:52:31;;;;;;;;;;;23.80;49.50;;;;;;6129352;29;19929;-48
2023/03/21 14:55:32;;;;;;;;;;;23.90;49.40;;;;;;6129624;29;20407;-52
2023/03/21 14:58:37;;;;;;;;;;;23.60;49.30;;;;;;6129007;29;19958;-50
2023/03/21 15:01:38;;;;;;;;;;;23.20;49.00;;;;;;6129267;29;19922;-50
2023/03/21 15:04:42;;;;;;;;;;;23.50;49.10;;;;;;6129557;29;19922;-47
2023/03/21 15:07:51;;;;;;;;;;;23.80;49.40;;;;;;6128940;29;19957;-52
2023/03/21 15:10:54;;;;;;;;;;;23.30;48.90;;;;;;6129086;29;19926;-52
2023/03/21 15:14:09;;;;;;;;;;;23.80;49.10;;;;;;6128465;29;19926;-50
2023/03/21 15:17:10;;;;;;;;;;;23.30;48.70;;;;;;6129015;29;19930;-49
2023/03/21 15:20:14;;;;;;;;;;;23.80;49.30;;;;;;6129018;29;19929;-50
2023/03/21 15:23:20;;;;;;;;;;;23.80;49.00;;;;;;6127630;29;19922;-51
2023/03/21 15:26:23;;;;;;;;;;;24.00;49.10;;;;;;6128459;28;19974;-50
2023/03/21 15:29:26;;;;;;;;;;;23.40;48.70;;;;;;6129273;29;20240;-51
2023/03/21 15:32:28;;;;;;;;;;;23.90;48.90;;;;;;6129775;29;19949;-50
2023/03/21 15:35:31;;;;;;;;;;;23.40;48.70;;;;;;6128946;29;19923;-51
2023/03/21 15:38:35;;;;;;;;;;;24.00;48.80;;;;;;6127809;29;19922;-51
2023/03/21 15:41:37;;;;;;;;;;;23.20;48.50;;;;;;6127639;29;19933;-50
2023/03/21 15:44:44;;;;;;;;;;;24.00;48.90;;;;;;6129931;28;19922;-52
2023/03/21 15:47:51;;;;;;;;;;;23.60;48.80;;;;;;6133849;29;19922;-50
2023/03/21 15:50:56;;;;;;;;;;;24.00;48.90;;;;;;6128626;29;20476;-48
2023/03/21 15:53:58;;;;;;;;;;;23.60;48.60;;;;;;6128436;29;19930;-50
2023/03/21 15:57:03;;;;;;;;;;;24.00;49.00;;;;;;6128635;29;20014;-51
2023/03/21 16:00:13;;;;;;;;;;;23.50;48.60;;;;;;6128211;29;19965;-50
2023/03/21 16:03:18;;;;;;;;;;;24.00;48.90;;;;;;6129353;29;20279;-49
2023/03/21 16:06:24;;;;;;;;;;;23.70;48.60;;;;;;6133952;29;20017;-50
2023/03/21 16:09:25;;;;;;;;;;;24.00;48.70;;;;;;6127260;29;19923;-51
2023/03/21 16:12:27;;;;;;;;;;;24.10;48.80;;;;;;6129065;29;19927;-51
2023/03/21 16:15:28;;;;;;;;;;;24.00;48.90;;;;;;6127806;29;19923;-49
2023/03/21 16:18:30;;;;;;;;;;;23.50;48.40;;;;;;6128292;29;19929;-48
2023/03/21 16:21:34;;;;;;;;;;;24.00;48.50;;;;;;6127784;29;19930;-52
2023/03/21 16:24:35;;;;;;;;;;;24.00;48.80;;;;;;6129191;29;19922;-53
2023/03/21 16:27:36;;;;;;;;;;;24.10;48.80;;;;;;6127119;28;19949;-50
2023/03/21 16:30:38;;;;;;;;;;;23.70;48.30;;;;;;6134720;29;19923;-50
2023/03/21 16:33:40;;;;;;;;;;;24.00;48.70;;;;;;6135539;29;20386;-47
2023/03/21 16:36:42;;;;;;;;;;;23.70;48.50;;;;;;6135736;29;19922;-47
2023/03/21 16:39:44;;;;;;;;;;;24.00;48.60;;;;;;6135950;28;20415;-50
2023/03/21 16:42:45;;;;;;;;;;;23.90;48.40;;;;;;6136439;29;20006;-52
2023/03/21 16:45:47;;;;;;;;;;;24.20;49.40;;;;;;6135389;28;19930;-50
2023/03/21 16:48:49;;;;;;;;;;;23.80;48.30;;;;;;6135760;29;20061;-51
2023/03/21 16:51:52;;;;;;;;;;;24.00;48.50;;;;;;6135913;29;19946;-48
2023/03/21 16:54:53;;;;;;;;;;;23.80;48.50;;;;;;6135958;29;19929;-51
2023/03/21 16:57:56;;;;;;;;;;;24.10;48.80;;;;;;6136472;29;19922;-48
2023/03/21 17:00:57;;;;;;;;;;;23.60;48.40;;;;;;6136711;29;19926;-47
2023/03/21 17:03:59;;;;;;;;;;;24.00;48.70;;;;;;6130725;28;19922;-51
2023/03/21 17:07:05;;;;;;;;;;;23.70;48.30;;;;;;6129429;29;20001;-51
2023/03/21 17:10:13;;;;;;;;;;;24.10;48.60;;;;;;6129837;29;19927;-51
2023/03/21 17:13:14;;;;;;;;;;;24.00;48.40;;;;;;6127814;29;19922;-49
2023/03/21 17:16:18;;;;;;;;;;;24.30;48.50;;;;;;6129042;29;19923;-51
2023/03/21 17:19:22;;;;;;;;;;;23.60;48.30;;;;;;6127780;29;19961;-50
2023/03/21 17:22:24;;;;;;;;;;;24.10;48.50;;;;;;6127185;29;19922;-50
2023/03/21 17:25:26;;;;;;;;;;;23.90;48.40;;;;;;6128505;29;19922;-51
2023/03/21 17:28:28;;;;;;;;;;;24.20;48.50;;;;;;6126782;29;19923;-50
2023/03/21 17:31:33;;;;;;;;;;;23.70;48.20;;;;;;6126940;29;19923;-50
2023/03/21 17:34:34;;;;;;;;;;;24.20;48.50;;;;;;6127730;28;19929;-52
2023/03/21 17:37:37;;;;;;;;;;;24.40;48.50;;;;;;6129182;29;19946;-48
2023/03/21 17:40:39;;;;;;;;;;;24.20;48.50;;;;;;6130582;29;20320;-52
2023/03/21 17:43:41;;;;;;;;;;;23.80;48.10;;;;;;6160909;28;19930;-50
2023/03/21 17:46:42;;;;;;;;;;;24.10;48.20;;;;;;6135081;28;19929;-48
2023/03/21 17:49:45;;;;;;;;;;;23.80;48.30;;;;;;6134085;29;19962;-45
2023/03/21 17:52:47;;;;;;;;;;;24.00;48.50;;;;;;6133546;29;20375;-45
2023/03/21 17:55:54;;;;;;;;;;;23.70;48.30;;;;;;6134214;29;19948;-48
2023/03/21 17:58:56;;;;;;;;;;;24.20;48.60;;;;;;6133337;29;19930;-49
2023/03/21 18:01:58;;;;;;;;;;;24.10;48.60;;;;;;6134529;29;19926;-45